createdAt,value
2023-04-21T00:02:25.518Z,45.23
2023-04-21T00:05:28.747Z,45.90
2023-04-21T00:08:33.471Z,46.43
2023-04-21T00:11:36.554Z,45.27
2023-04-21T00:14:40.412Z,46.37
2023-04-21T00:17:43.456Z,44.30
2023-04-21T00:20:46.718Z,44.67
2023-04-21T00:23:51.291Z,45.07
2023-04-21T00:26:54.336Z,45.63
2023-04-21T00:29:57.386Z,45.67
2023-04-21T00:33:00.430Z,43.53
2023-04-21T00:36:03.447Z,45.83
2023-04-21T00:39:07.947Z,46.47
2023-04-21T00:42:10.948Z,44.50
2023-04-21T00:45:15.374Z,44.17
2023-04-21T00:48:18.450Z,44.30
2023-04-21T00:51:21.642Z,42.20
2023-04-21T00:54:27.028Z,43.00
2023-04-21T00:57:30.313Z,42.10
2023-04-21T01:00:33.357Z,42.27
2023-04-21T01:03:37.608Z,41.80
2023-04-21T01:06:42.366Z,39.87
2023-04-21T01:09:46.799Z,40.30
2023-04-21T01:12:49.938Z,40.03
2023-04-21T01:15:53.079Z,38.23
2023-04-21T01:18:57.231Z,38.20
2023-04-21T01:22:02.126Z,37.43
2023-04-21T01:25:05.949Z,38.07
2023-04-21T01:28:09.051Z,38.40
2023-04-21T01:31:12.203Z,36.33
2023-04-21T01:34:15.217Z,35.87
2023-04-21T01:37:25.542Z,36.83
2023-04-21T01:40:28.645Z,35.70
2023-04-21T01:43:31.842Z,35.87
2023-04-21T01:46:35.226Z,36.20
2023-04-21T01:49:38.290Z,33.83
2023-04-21T01:52:42.849Z,33.67
2023-04-21T01:55:45.910Z,33.23
2023-04-21T01:58:48.995Z,33.97
2023-04-21T02:01:52.125Z,32.53
2023-04-21T02:04:55.302Z,33.80
2023-04-21T02:07:59.748Z,33.10
2023-04-21T02:11:02.945Z,33.93
2023-04-21T02:14:06.077Z,36.87
2023-04-21T02:17:09.186Z,34.30
2023-04-21T02:20:13.434Z,34.37
2023-04-21T02:23:18.043Z,35.30
2023-04-21T02:26:21.875Z,35.63
2023-04-21T02:29:25.033Z,36.87
2023-04-21T02:32:28.409Z,36.70
2023-04-21T02:35:33.770Z,38.43
2023-04-21T02:38:38.429Z,37.83
2023-04-21T02:41:41.482Z,38.10
2023-04-21T02:44:44.607Z,39.43
2023-04-21T02:47:47.702Z,39.00
2023-04-21T02:50:50.895Z,39.30
2023-04-21T02:53:55.352Z,38.10
2023-04-21T02:56:58.413Z,38.53
2023-04-21T03:00:01.385Z,35.93
2023-04-21T03:03:04.893Z,37.17
2023-04-21T03:06:08.577Z,36.97
2023-04-21T03:09:13.066Z,37.00
2023-04-21T03:12:16.122Z,38.07
2023-04-21T03:15:19.670Z,38.30
2023-04-21T03:18:22.837Z,33.90
2023-04-21T03:21:25.883Z,32.77
2023-04-21T03:24:30.348Z,34.17
2023-04-21T03:27:33.720Z,36.30
2023-04-21T03:30:36.822Z,38.63
2023-04-21T03:33:39.901Z,39.20
2023-04-21T03:36:43.177Z,37.60
2023-04-21T03:39:47.645Z,37.13
2023-04-21T03:42:50.755Z,36.53
2023-04-21T03:45:53.869Z,34.03
2023-04-21T03:48:56.973Z,35.73
2023-04-21T03:52:00.012Z,22.53
2023-04-21T03:55:05.213Z,21.43
2023-04-21T03:58:08.574Z,18.20
2023-04-21T04:01:11.666Z,19.00
2023-04-21T04:04:14.888Z,18.90
2023-04-21T04:07:18.701Z,16.53
2023-04-21T04:10:23.092Z,14.80
2023-04-21T04:13:26.650Z,21.57
2023-04-21T04:16:30.003Z,16.43
2023-04-21T04:19:33.196Z,14.03
2023-04-21T04:22:36.248Z,13.73
2023-04-21T04:25:40.636Z,13.60
2023-04-21T04:28:43.721Z,15.57
2023-04-21T04:31:46.908Z,12.80
2023-04-21T04:34:52.490Z,16.83
2023-04-21T04:37:57.110Z,12.47
2023-04-21T04:41:02.423Z,13.03
2023-04-21T04:44:05.758Z,12.20
2023-04-21T04:47:09.149Z,12.60
2023-04-21T04:50:12.298Z,13.00
2023-04-21T04:53:15.345Z,12.40
2023-04-21T04:56:19.791Z,13.43
2023-04-21T04:59:22.858Z,12.83
2023-04-21T05:02:26.127Z,12.50
2023-04-21T05:05:29.374Z,13.07
2023-04-21T05:08:32.402Z,12.23
2023-04-21T05:11:36.840Z,12.40
2023-04-21T05:14:39.869Z,13.30
2023-04-21T05:17:42.981Z,13.53
2023-04-21T05:20:46.025Z,12.33
2023-04-21T05:23:49.038Z,12.43
2023-04-21T05:26:53.426Z,11.70
2023-04-21T05:29:56.499Z,12.77
2023-04-21T05:32:59.834Z,10.70
2023-04-21T05:36:03.055Z,9.93
2023-04-21T05:39:06.516Z,10.37
2023-04-21T05:42:12.279Z,9.83
2023-04-21T05:45:15.587Z,11.70
2023-04-21T05:48:18.719Z,10.57
2023-04-21T05:51:21.844Z,9.47
2023-04-21T05:54:24.918Z,11.23
2023-04-21T05:57:29.407Z,10.13
2023-04-21T06:00:32.435Z,10.10
2023-04-21T06:03:35.613Z,11.20
2023-04-21T06:06:38.781Z,10.80
2023-04-21T06:09:42.372Z,10.00
2023-04-21T06:12:46.960Z,9.07
2023-04-21T06:15:50.020Z,10.07
2023-04-21T06:18:53.135Z,9.43
2023-04-21T06:21:58.062Z,9.80
2023-04-21T06:25:01.463Z,9.30
2023-04-21T06:28:05.979Z,8.40
2023-04-21T06:31:09.940Z,8.77
2023-04-21T06:34:13.242Z,8.83
2023-04-21T06:37:16.571Z,9.83
2023-04-21T06:40:19.779Z,8.10
2023-04-21T06:43:24.274Z,8.90
2023-04-21T06:46:27.378Z,7.93
2023-04-21T06:49:30.730Z,7.50
2023-04-21T06:52:33.773Z,7.67
2023-04-21T06:55:36.872Z,7.87
2023-04-21T06:58:41.319Z,8.00
2023-04-21T07:01:44.417Z,8.50
2023-04-21T07:04:47.501Z,7.73
2023-04-21T07:07:50.602Z,7.50
2023-04-21T07:10:53.713Z,8.53
2023-04-21T07:14:01.305Z,7.73
2023-04-21T07:17:04.537Z,7.73
2023-04-21T07:20:09.083Z,8.07
2023-04-21T07:23:12.202Z,10.57
2023-04-21T07:26:15.318Z,7.77
2023-04-21T07:29:19.910Z,7.20
2023-04-21T07:32:23.161Z,8.00
2023-04-21T07:35:26.905Z,7.13
2023-04-21T07:38:30.567Z,8.27
2023-04-21T07:41:33.750Z,7.30
2023-04-21T07:44:38.488Z,7.43
2023-04-21T07:47:41.732Z,6.93
2023-04-21T07:50:44.806Z,6.10
2023-04-21T07:53:47.888Z,6.93
2023-04-21T07:56:51.011Z,6.60
2023-04-21T07:59:55.467Z,5.77
2023-04-21T08:02:58.657Z,5.90
2023-04-21T08:06:01.973Z,6.70
2023-04-21T08:09:05.337Z,6.10
2023-04-21T08:12:08.653Z,6.20
2023-04-21T08:15:13.316Z,5.53
2023-04-21T08:18:21.231Z,6.07
2023-04-21T08:21:25.656Z,6.77
2023-04-21T08:24:28.800Z,6.00
2023-04-21T08:27:32.031Z,6.80
2023-04-21T08:30:36.713Z,6.27
2023-04-21T08:33:49.834Z,6.50
2023-04-21T08:37:01.414Z,6.00
2023-04-21T08:40:04.728Z,6.20
2023-04-21T08:43:08.074Z,5.60
2023-04-21T08:46:14.116Z,5.87
2023-04-21T08:49:20.406Z,6.33
2023-04-21T08:52:23.693Z,7.80
2023-04-21T08:55:28.373Z,7.00
2023-04-21T08:58:31.438Z,5.93
2023-04-21T09:02:10.951Z,5.83
2023-04-21T09:05:23.604Z,5.37
2023-04-21T09:08:28.176Z,5.50
2023-04-21T09:11:34.802Z,5.67
2023-04-21T09:14:37.871Z,5.73
2023-04-21T09:17:42.388Z,5.97
2023-04-21T09:20:46.880Z,5.67
2023-04-21T09:23:50.906Z,5.50
2023-04-21T09:26:55.012Z,5.73
2023-04-21T09:30:04.561Z,5.23
2023-04-21T09:33:20.250Z,5.37
2023-04-21T09:36:30.411Z,4.97
2023-04-21T09:39:46.213Z,5.47
2023-04-21T09:42:58.341Z,5.70
2023-04-21T09:46:05.869Z,5.73
2023-04-21T09:49:12.982Z,5.37
2023-04-21T09:52:19.332Z,5.27
2023-04-21T09:55:27.126Z,5.30
2023-04-21T09:58:35.307Z,5.33
2023-04-21T10:01:39.266Z,5.07
2023-04-21T10:04:45.875Z,5.33
2023-04-21T10:07:50.291Z,5.70
2023-04-21T10:10:54.625Z,5.20
2023-04-21T10:13:57.992Z,5.30
2023-04-21T10:17:06.544Z,4.80
2023-04-21T10:20:16.669Z,6.03
2023-04-21T10:23:28.900Z,5.17
2023-04-21T10:26:36.132Z,5.27
2023-04-21T10:29:54.694Z,4.80
2023-04-21T10:33:04.470Z,6.30
2023-04-21T10:36:15.883Z,5.10
2023-04-21T10:39:29.221Z,4.80
2023-04-21T10:42:37.230Z,5.30
2023-04-21T10:45:40.380Z,6.00
2023-04-21T10:48:53.092Z,6.10
2023-04-21T10:52:08.656Z,5.93
2023-04-21T10:55:12.843Z,6.10
2023-04-21T10:58:18.208Z,6.20
2023-04-21T11:01:21.321Z,6.30
2023-04-21T11:04:25.060Z,5.97
2023-04-21T11:07:31.116Z,5.70
2023-04-21T11:10:44.140Z,6.37
2023-04-21T11:13:47.858Z,6.30
2023-04-21T11:16:51.244Z,6.60
2023-04-21T11:19:56.249Z,6.23
2023-04-21T11:23:01.248Z,6.17
2023-04-21T11:26:04.309Z,6.40
2023-04-21T11:29:09.487Z,6.53
2023-04-21T11:32:12.966Z,6.40
2023-04-21T11:35:16.222Z,6.30
2023-04-21T11:38:20.840Z,6.30
2023-04-21T11:41:25.044Z,5.63
2023-04-21T11:44:35.764Z,5.70
2023-04-21T11:47:40.147Z,5.63
2023-04-21T11:50:48.871Z,6.03
2023-04-21T11:53:54.061Z,6.33
2023-04-21T11:56:57.150Z,6.20
2023-04-21T12:00:01.107Z,6.90
2023-04-21T12:03:04.476Z,7.00
2023-04-21T12:06:08.218Z,6.23
2023-04-21T12:09:19.094Z,6.60
2023-04-21T12:12:23.677Z,6.50
2023-04-21T12:15:26.703Z,5.53
2023-04-21T12:18:30.124Z,6.37
2023-04-21T12:21:33.198Z,6.00
2023-04-21T12:24:37.944Z,5.93
2023-04-21T12:27:49.592Z,5.90
2023-04-21T12:30:52.689Z,5.40
2023-04-21T12:33:55.810Z,5.10
2023-04-21T12:36:58.902Z,5.40
2023-04-21T12:40:03.502Z,5.10
2023-04-21T12:43:07.110Z,5.50
2023-04-21T12:46:10.322Z,4.60
2023-04-21T12:49:14.415Z,4.70
2023-04-21T12:52:17.475Z,4.93
2023-04-21T12:55:22.165Z,4.70
2023-04-21T12:58:25.193Z,4.87
2023-04-21T13:01:28.379Z,5.50
2023-04-21T13:04:32.364Z,5.47
2023-04-21T13:07:35.827Z,5.27
2023-04-21T13:10:40.378Z,5.77
2023-04-21T13:13:43.424Z,5.60
2023-04-21T13:16:46.503Z,7.07
2023-04-21T13:19:49.671Z,7.30
2023-04-21T13:22:52.788Z,6.13
2023-04-21T13:25:57.241Z,6.47
2023-04-21T13:29:00.312Z,5.57
2023-04-21T13:32:03.956Z,6.40
2023-04-21T13:35:09.410Z,6.33
2023-04-21T13:38:13.164Z,6.90
2023-04-21T13:41:17.687Z,6.10
2023-04-21T13:44:21.594Z,6.17
2023-04-21T13:47:25.293Z,5.90
2023-04-21T13:50:28.486Z,6.07
2023-04-21T13:53:31.971Z,6.10
2023-04-21T13:56:36.531Z,6.23
2023-04-21T13:59:39.614Z,6.30
2023-04-21T14:02:43.001Z,6.47
2023-04-21T14:05:46.203Z,6.63
2023-04-21T14:08:49.343Z,6.80
2023-04-21T14:11:53.746Z,6.23
2023-04-21T14:14:56.779Z,6.30
2023-04-21T14:18:00.671Z,7.10
2023-04-21T14:21:03.796Z,6.13
2023-04-21T14:24:07.069Z,6.77
2023-04-21T14:27:11.897Z,6.40
2023-04-21T14:30:15.874Z,7.57
2023-04-21T14:33:19.236Z,6.53
2023-04-21T14:36:22.346Z,7.33
2023-04-21T14:39:25.572Z,6.40
2023-04-21T14:42:30.009Z,7.73
2023-04-21T14:45:33.245Z,8.30
2023-04-21T14:48:36.546Z,6.60
2023-04-21T14:51:42.087Z,7.30
2023-04-21T14:54:45.208Z,7.20
2023-04-21T14:57:51.854Z,7.27
2023-04-21T15:00:55.000Z,7.13
2023-04-21T15:03:59.856Z,6.60
2023-04-21T15:07:03.867Z,8.17
2023-04-21T15:10:08.060Z,7.63
2023-04-21T15:13:12.658Z,8.20
2023-04-21T15:16:15.893Z,8.23
2023-04-21T15:19:18.990Z,8.33
2023-04-21T15:22:22.131Z,9.03
2023-04-21T15:25:25.260Z,10.00
2023-04-21T15:28:29.691Z,9.87
2023-04-21T15:31:32.759Z,9.13
2023-04-21T15:34:36.004Z,9.00
2023-04-21T15:37:39.124Z,9.10
2023-04-21T15:40:59.074Z,9.00
2023-04-21T15:44:05.136Z,8.03
2023-04-21T15:47:08.181Z,8.43
2023-04-21T15:50:12.319Z,7.93
2023-04-21T15:53:16.715Z,10.80
2023-04-21T15:56:21.759Z,7.87
2023-04-21T15:59:26.490Z,8.40
2023-04-21T16:02:29.723Z,7.80
2023-04-21T16:05:33.118Z,6.93
2023-04-21T16:08:36.477Z,9.70
2023-04-21T16:11:39.529Z,9.17
2023-04-21T16:14:55.841Z,7.67
2023-04-21T16:18:06.619Z,8.07
2023-04-21T16:21:10.793Z,7.03
2023-04-21T16:24:14.057Z,7.53
2023-04-21T16:27:17.283Z,6.37
2023-04-21T16:30:21.799Z,6.20
2023-04-21T16:33:24.854Z,5.80
2023-04-21T16:36:29.464Z,6.30
2023-04-21T16:39:32.524Z,5.50
2023-04-21T16:42:35.612Z,5.57
2023-04-21T16:45:40.231Z,6.00
2023-04-21T16:48:43.345Z,5.40
2023-04-21T16:51:46.506Z,6.13
2023-04-21T16:54:49.567Z,5.80
2023-04-21T16:57:52.678Z,4.80
2023-04-21T17:00:57.593Z,7.80
2023-04-21T17:04:00.831Z,4.53
2023-04-21T17:07:04.198Z,6.50
2023-04-21T17:10:08.153Z,5.13
2023-04-21T17:13:11.375Z,4.60
2023-04-21T17:16:15.961Z,5.60
2023-04-21T17:19:18.967Z,5.37
2023-04-21T17:22:22.062Z,4.90
2023-04-21T17:25:25.132Z,6.43
2023-04-21T17:28:28.244Z,6.40
2023-04-21T17:31:34.095Z,4.87
2023-04-21T17:34:37.514Z,5.20
2023-04-21T17:37:41.100Z,6.00
2023-04-21T17:40:44.565Z,6.33
2023-04-21T17:43:47.638Z,5.63
2023-04-21T17:46:52.379Z,5.20
2023-04-21T17:49:55.390Z,5.30
2023-04-21T17:52:58.460Z,5.13
2023-04-21T17:56:01.676Z,7.40
2023-04-21T17:59:04.964Z,6.40
2023-04-21T18:02:09.813Z,7.60
2023-04-21T18:05:13.638Z,5.87
2023-04-21T18:08:16.771Z,5.23
2023-04-21T18:11:19.871Z,5.80
2023-04-21T18:14:22.897Z,5.20
2023-04-21T18:17:27.513Z,6.47
2023-04-21T18:20:30.694Z,4.90
2023-04-21T18:23:33.822Z,6.13
2023-04-21T18:26:36.923Z,5.50
2023-04-21T18:29:39.885Z,5.10
2023-04-21T18:32:44.431Z,5.40
2023-04-21T18:35:47.886Z,6.93
2023-04-21T18:38:50.923Z,5.90
2023-04-21T18:41:54.033Z,6.07
2023-04-21T18:44:58.454Z,5.47
2023-04-21T18:48:03.567Z,4.93
2023-04-21T18:51:06.730Z,5.53
2023-04-21T18:54:09.843Z,5.43
2023-04-21T18:57:13.083Z,5.43
2023-04-21T19:00:16.731Z,7.73
2023-04-21T19:03:22.273Z,6.87
2023-04-21T19:06:25.942Z,5.40
2023-04-21T19:09:29.017Z,6.07
2023-04-21T19:12:34.470Z,6.60
2023-04-21T19:15:38.160Z,4.93
2023-04-21T19:18:42.756Z,5.37
2023-04-21T19:21:45.967Z,6.27
2023-04-21T19:24:49.423Z,5.80
2023-04-21T19:27:52.597Z,5.63
2023-04-21T19:30:55.621Z,5.73
2023-04-21T19:34:00.143Z,5.97
2023-04-21T19:37:03.246Z,6.93
2023-04-21T19:40:08.224Z,6.97
2023-04-21T19:43:11.396Z,6.30
2023-04-21T19:46:14.418Z,5.13
2023-04-21T19:49:18.912Z,5.40
2023-04-21T19:52:22.020Z,6.53
2023-04-21T19:55:25.101Z,7.10
2023-04-21T19:58:39.475Z,8.97
2023-04-21T20:01:44.004Z,9.67
2023-04-21T20:04:49.170Z,9.17
2023-04-21T20:07:52.441Z,9.60
2023-04-21T20:10:55.464Z,8.90
2023-04-21T20:13:58.563Z,8.87
2023-04-21T20:17:02.695Z,9.13
2023-04-21T20:20:09.526Z,9.40
2023-04-21T20:23:12.652Z,10.00
2023-04-21T20:26:16.408Z,9.97
2023-04-21T20:29:19.505Z,9.97
2023-04-21T20:32:22.484Z,7.93
2023-04-21T20:35:27.160Z,9.33
2023-04-21T20:38:30.222Z,8.70
2023-04-21T20:41:33.747Z,8.40
2023-04-21T20:44:37.513Z,9.60
2023-04-21T20:47:41.084Z,9.33
2023-04-21T20:50:46.829Z,8.80
2023-04-21T20:53:50.906Z,8.37
2023-04-21T20:56:54.611Z,7.83
2023-04-21T20:59:57.674Z,8.63
2023-04-21T21:03:00.907Z,8.37
2023-04-21T21:06:06.347Z,8.50
2023-04-21T21:09:10.164Z,8.23
2023-04-21T21:12:13.191Z,8.70
2023-04-21T21:15:16.292Z,7.70
2023-04-21T21:18:19.587Z,8.03
2023-04-21T21:21:24.037Z,8.57
2023-04-21T21:24:28.924Z,7.40
2023-04-21T21:27:32.025Z,7.67
2023-04-21T21:30:35.848Z,7.30
2023-04-21T21:33:38.965Z,7.17
2023-04-21T21:36:43.623Z,7.70
2023-04-21T21:39:46.699Z,6.70
2023-04-21T21:42:49.800Z,7.70
2023-04-21T21:45:52.899Z,7.53
2023-04-21T21:48:56.016Z,7.57
2023-04-21T21:52:00.479Z,7.57
2023-04-21T21:55:03.324Z,7.27
2023-04-21T21:58:06.386Z,7.17
2023-04-21T22:01:09.464Z,7.30
2023-04-21T22:04:12.692Z,8.50
2023-04-21T22:07:17.669Z,7.00
2023-04-21T22:10:21.560Z,6.83
2023-04-21T22:13:24.623Z,7.10
2023-04-21T22:16:28.694Z,5.93
2023-04-21T22:19:32.025Z,6.67
2023-04-21T22:22:36.651Z,6.70
2023-04-21T22:25:39.733Z,6.13
2023-04-21T22:28:43.674Z,7.03
2023-04-21T22:31:46.864Z,7.60
2023-04-21T22:34:50.212Z,5.50
2023-04-21T22:37:54.723Z,6.80
2023-04-21T22:40:57.807Z,6.87
2023-04-21T22:44:00.883Z,6.63
2023-04-21T22:47:04.325Z,6.50
2023-04-21T22:50:09.440Z,6.40
2023-04-21T22:53:14.231Z,6.33
2023-04-21T22:56:17.298Z,6.53
2023-04-21T22:59:20.357Z,5.60
2023-04-21T23:02:23.583Z,6.03
2023-04-21T23:05:26.754Z,6.53
2023-04-21T23:08:31.267Z,5.87
2023-04-21T23:11:34.301Z,5.97
2023-04-21T23:14:37.464Z,5.87
2023-04-21T23:17:40.563Z,5.67
2023-04-21T23:20:43.780Z,5.63
2023-04-21T23:23:48.300Z,5.17
2023-04-21T23:26:51.367Z,7.07
2023-04-21T23:29:54.410Z,6.20
2023-04-21T23:32:57.442Z,6.40
2023-04-21T23:36:00.603Z,6.20
2023-04-21T23:39:05.160Z,5.90
2023-04-21T23:42:08.282Z,6.30
2023-04-21T23:45:12.168Z,5.90
2023-04-21T23:48:15.244Z,6.20
2023-04-21T23:51:18.405Z,5.93
2023-04-21T23:54:23.083Z,6.03
2023-04-21T23:57:26.386Z,6.20
